Time;durP1;ratioP1;P1;durP2;ratioP2;P2;SDS_P1;SDS_P2;PMS_P1;PMS_P2;Temp;Humidity;BMP_temperature;BMP_pressure;BME280_temperature;BME280_humidity;BME280_pressure;Samples;Min_cycle;Max_cycle;Signal;HPM_P1;HPM_P2
2021/01/06 00:00:08;;;;;;;34.83;21.38;;;2.80;87.30;;;;;;5031044;28;20017;-67
2021/01/06 00:02:37;;;;;;;32.38;20.45;;;2.80;87.30;;;;;;5030466;28;20021;-66
2021/01/06 00:05:08;;;;;;;38.25;21.83;;;2.90;87.40;;;;;;5027846;28;20029;-67
2021/01/06 00:07:35;;;;;;;35.17;20.60;;;2.90;87.30;;;;;;5028556;28;20381;-66
2021/01/06 00:10:01;;;;;;;36.90;21.00;;;2.90;87.30;;;;;;5029653;28;20044;-67
2021/01/06 00:12:27;;;;;;;35.13;19.70;;;2.90;87.30;;;;;;5027614;28;20030;-67
2021/01/06 00:14:52;;;;;;;33.88;19.38;;;2.90;87.10;;;;;;5021444;28;20095;-67
2021/01/06 00:17:18;;;;;;;35.05;19.92;;;3.00;87.40;;;;;;5030112;28;20018;-66
2021/01/06 00:19:44;;;;;;;33.75;20.13;;;3.00;87.50;;;;;;5027154;28;20071;-67
2021/01/06 00:22:09;;;;;;;32.55;19.23;;;3.00;87.30;;;;;;5030027;28;20075;-66
2021/01/06 00:24:35;;;;;;;34.35;19.90;;;3.10;87.10;;;;;;5032010;28;20416;-66
2021/01/06 00:27:01;;;;;;;33.08;19.08;;;3.00;86.70;;;;;;5028042;28;20056;-66
2021/01/06 00:29:26;;;;;;;35.45;20.08;;;3.00;86.90;;;;;;5031557;28;20103;-66
2021/01/06 00:31:52;;;;;;;34.85;20.17;;;3.00;86.90;;;;;;5023797;28;20022;-66
2021/01/06 00:34:18;;;;;;;31.88;18.45;;;3.00;87.10;;;;;;5017801;28;20030;-66
2021/01/06 00:36:44;;;;;;;40.22;21.70;;;3.10;87.20;;;;;;5038563;28;20123;-66
2021/01/06 00:39:09;;;;;;;35.55;19.25;;;3.10;87.20;;;;;;5036337;28;20087;-66
2021/01/06 00:41:36;;;;;;;34.97;18.83;;;3.10;87.00;;;;;;5028431;28;20032;-66
2021/01/06 00:44:02;;;;;;;29.05;17.85;;;3.10;86.90;;;;;;5030930;28;20100;-66
2021/01/06 00:46:31;;;;;;;30.75;17.88;;;3.10;87.10;;;;;;5029201;28;20026;-66
2021/01/06 00:48:59;;;;;;;31.75;18.13;;;3.20;87.10;;;;;;5028768;28;20389;-66
2021/01/06 00:51:25;;;;;;;36.20;19.45;;;3.10;86.90;;;;;;5034136;28;20384;-66
2021/01/06 00:53:50;;;;;;;36.67;20.63;;;3.10;86.70;;;;;;5034048;28;20519;-67
2021/01/06 00:56:16;;;;;;;31.65;17.48;;;3.10;86.70;;;;;;5033706;28;20061;-66
2021/01/06 00:58:42;;;;;;;29.95;18.98;;;3.20;87.00;;;;;;5035670;28;20022;-66
2021/01/06 01:01:07;;;;;;;31.02;19.27;;;3.20;87.00;;;;;;5036044;28;20519;-67
2021/01/06 01:03:33;;;;;;;31.80;18.70;;;3.20;86.70;;;;;;5032902;28;20072;-66
2021/01/06 01:05:59;;;;;;;33.60;20.00;;;3.20;86.70;;;;;;5038340;28;20029;-66
2021/01/06 01:08:24;;;;;;;33.47;19.50;;;3.10;86.60;;;;;;5036561;28;20481;-66
2021/01/06 01:10:55;;;;;;;35.75;20.60;;;3.10;86.10;;;;;;5029932;28;20086;-66
2021/01/06 01:13:25;;;;;;;31.38;17.17;;;3.10;86.50;;;;;;5024391;28;20030;-66
2021/01/06 01:15:53;;;;;;;34.40;19.10;;;3.10;86.60;;;;;;5028316;28;20022;-66
2021/01/06 01:18:22;;;;;;;31.85;19.77;;;3.00;86.70;;;;;;5028608;28;20029;-66
2021/01/06 01:20:50;;;;;;;32.20;18.70;;;3.00;86.70;;;;;;5037507;28;20101;-66
2021/01/06 01:23:18;;;;;;;36.08;19.98;;;3.00;86.80;;;;;;5032338;28;20032;-67
2021/01/06 01:25:44;;;;;;;34.53;19.02;;;3.00;86.60;;;;;;5036583;28;20021;-66
2021/01/06 01:28:17;;;;;;;32.42;18.95;;;3.00;86.60;;;;;;5037871;28;20045;-66
2021/01/06 01:30:43;;;;;;;31.23;19.35;;;3.00;86.80;;;;;;5029996;28;20064;-66
2021/01/06 01:33:11;;;;;;;36.28;19.48;;;2.90;86.90;;;;;;5028907;28;20021;-66
2021/01/06 01:35:36;;;;;;;34.58;20.33;;;3.00;86.90;;;;;;5031785;28;20434;-66
2021/01/06 01:38:04;;;;;;;32.17;18.60;;;3.00;86.80;;;;;;5035875;28;20061;-66
2021/01/06 01:40:33;;;;;;;31.73;19.70;;;3.00;86.80;;;;;;5035112;28;20433;-67
2021/01/06 01:43:04;;;;;;;34.92;20.65;;;3.00;87.00;;;;;;5035535;28;20086;-67
2021/01/06 01:45:44;;;;;;;30.63;18.20;;;3.00;86.90;;;;;;5037162;28;20063;-66
2021/01/06 01:48:34;;;;;;;32.78;19.55;;;2.90;86.80;;;;;;5034509;28;20049;-66
2021/01/06 01:51:05;;;;;;;38.15;20.88;;;3.00;87.00;;;;;;5029731;28;20053;-66
2021/01/06 01:53:39;;;;;;;33.50;18.30;;;3.00;87.00;;;;;;5026141;28;20072;-66
2021/01/06 01:56:08;;;;;;;33.72;19.20;;;2.90;86.90;;;;;;5031898;28;20026;-66
2021/01/06 01:58:37;;;;;;;37.65;20.63;;;3.00;86.90;;;;;;5030770;28;20058;-66
2021/01/06 02:01:04;;;;;;;33.90;18.33;;;3.00;86.90;;;;;;5030493;28;20021;-66
2021/01/06 02:03:44;;;;;;;34.33;19.75;;;3.00;87.10;;;;;;5030651;28;20493;-66
2021/01/06 02:06:16;;;;;;;34.47;18.60;;;3.00;87.10;;;;;;5022002;28;20376;-66
2021/01/06 02:08:55;;;;;;;33.60;19.58;;;3.00;87.00;;;;;;5028912;28;20393;-66
2021/01/06 02:11:40;;;;;;;30.55;17.25;;;3.00;87.20;;;;;;5035362;28;20029;-66
2021/01/06 02:14:28;;;;;;;30.65;17.45;;;3.00;87.10;;;;;;5024273;28;20072;-66
2021/01/06 02:16:59;;;;;;;32.80;17.35;;;3.00;87.20;;;;;;5035189;28;20025;-66
2021/01/06 02:19:31;;;;;;;33.58;17.35;;;3.00;87.10;;;;;;5034233;28;20029;-66
2021/01/06 02:21:57;;;;;;;33.38;17.73;;;3.10;87.20;;;;;;5033842;28;20053;-66
2021/01/06 02:24:23;;;;;;;32.00;17.70;;;3.10;87.10;;;;;;5032734;28;20028;-66
2021/01/06 02:26:49;;;;;;;34.20;19.15;;;3.10;86.80;;;;;;5029120;28;20030;-66
2021/01/06 02:29:15;;;;;;;32.58;18.85;;;3.10;86.90;;;;;;5029918;28;20029;-66
2021/01/06 02:31:42;;;;;;;36.88;21.00;;;3.10;86.90;;;;;;5031422;28;20038;-66
2021/01/06 02:34:09;;;;;;;37.85;19.67;;;3.10;86.80;;;;;;5032978;28;20025;-66
2021/01/06 02:36:35;;;;;;;38.17;19.10;;;3.10;86.80;;;;;;5034943;28;20014;-66
2021/01/06 02:39:02;;;;;;;29.83;17.38;;;3.00;86.80;;;;;;5032158;28;20485;-66
2021/01/06 02:41:28;;;;;;;33.65;18.02;;;3.00;87.10;;;;;;5033782;28;20695;-66
2021/01/06 02:43:53;;;;;;;33.47;18.67;;;3.10;87.20;;;;;;5034345;28;20038;-66
2021/01/06 02:46:20;;;;;;;42.75;20.45;;;3.10;87.10;;;;;;5034303;28;20030;-66
2021/01/06 02:48:47;;;;;;;33.50;18.70;;;3.10;86.90;;;;;;5031601;28;20068;-66
2021/01/06 02:51:36;;;;;;;32.75;17.55;;;3.10;86.90;;;;;;5032078;28;20025;-66
2021/01/06 02:54:06;;;;;;;40.05;20.80;;;3.10;86.90;;;;;;5033807;28;20037;-66
2021/01/06 02:56:33;;;;;;;35.92;19.50;;;3.10;86.90;;;;;;5030828;28;20404;-66
2021/01/06 02:59:03;;;;;;;39.95;20.20;;;3.00;86.80;;;;;;5030422;28;20041;-66
2021/01/06 03:01:33;;;;;;;35.40;19.90;;;3.00;86.90;;;;;;5032001;28;20152;-66
2021/01/06 03:04:00;;;;;;;41.88;21.17;;;3.00;86.90;;;;;;5031081;28;20047;-66
2021/01/06 03:06:41;;;;;;;39.63;19.92;;;3.00;87.10;;;;;;5028751;28;20231;-66
2021/01/06 03:09:31;;;;;;;45.50;22.63;;;3.00;87.10;;;;;;5025921;28;20029;-66
2021/01/06 03:11:59;;;;;;;40.72;21.30;;;3.00;87.10;;;;;;5032600;28;20373;-66
2021/01/06 03:14:28;;;;;;;40.47;20.05;;;2.90;87.10;;;;;;5020923;28;20041;-66
2021/01/06 03:16:56;;;;;;;36.35;20.13;;;2.90;87.30;;;;;;5034460;28;20029;-66
2021/01/06 03:19:25;;;;;;;45.10;20.73;;;2.90;87.50;;;;;;5032899;28;20440;-66
2021/01/06 03:21:53;;;;;;;41.60;21.10;;;2.90;87.60;;;;;;5032590;28;20056;-66
2021/01/06 03:24:23;;;;;;;33.00;18.73;;;2.90;87.50;;;;;;5022944;28;20061;-66
2021/01/06 03:26:51;;;;;;;41.30;21.63;;;3.00;87.80;;;;;;5034304;28;20432;-66
2021/01/06 03:29:17;;;;;;;44.00;20.13;;;3.00;87.60;;;;;;5032277;28;20075;-66
2021/01/06 03:31:45;;;;;;;50.97;23.15;;;3.00;87.40;;;;;;5031493;28;20036;-66
2021/01/06 03:34:26;;;;;;;48.47;22.85;;;3.00;87.60;;;;;;5034055;28;20025;-66
2021/01/06 03:37:05;;;;;;;45.10;23.53;;;3.00;87.60;;;;;;5019283;28;20014;-66
2021/01/06 03:39:37;;;;;;;47.75;24.50;;;2.90;87.60;;;;;;5028798;28;20274;-66
2021/01/06 03:42:03;;;;;;;42.53;20.05;;;2.90;88.40;;;;;;5032636;28;20353;-66
2021/01/06 03:44:31;;;;;;;49.28;22.88;;;2.90;88.00;;;;;;5033124;28;20377;-66
2021/01/06 03:47:25;;;;;;;44.67;22.60;;;2.90;88.00;;;;;;5021998;28;20029;-66
2021/01/06 03:50:18;;;;;;;42.90;20.60;;;2.90;88.00;;;;;;5024539;28;20124;-66
2021/01/06 03:53:19;;;;;;;40.70;21.05;;;2.90;88.00;;;;;;5033800;28;20527;-66
2021/01/06 03:55:58;;;;;;;52.60;23.38;;;3.00;88.20;;;;;;5040675;28;20105;-66
2021/01/06 03:58:37;;;;;;;47.88;23.77;;;3.00;87.90;;;;;;5032275;28;20014;-65
2021/01/06 04:01:11;;;;;;;46.95;22.95;;;2.90;87.80;;;;;;5028206;28;20104;-66
2021/01/06 04:04:07;;;;;;;42.55;20.73;;;2.90;88.00;;;;;;5022358;28;20113;-66
2021/01/06 04:06:36;;;;;;;47.28;23.25;;;2.90;87.80;;;;;;5029398;28;20095;-65
2021/01/06 04:09:06;;;;;;;40.63;21.58;;;2.90;88.00;;;;;;5028237;28;20127;-66
2021/01/06 04:11:35;;;;;;;48.60;22.10;;;2.90;88.10;;;;;;5033191;28;20452;-66
2021/01/06 04:14:01;;;;;;;43.08;20.35;;;3.00;88.10;;;;;;5029054;28;20029;-66
2021/01/06 04:16:27;;;;;;;46.10;21.13;;;2.90;87.90;;;;;;5031194;28;20484;-66
2021/01/06 04:18:53;;;;;;;49.30;22.90;;;2.90;87.90;;;;;;5019059;28;20034;-66
2021/01/06 04:21:20;;;;;;;50.60;22.50;;;2.90;88.10;;;;;;5025499;28;20026;-66
2021/01/06 04:23:46;;;;;;;57.47;23.13;;;3.00;88.20;;;;;;5033529;28;20386;-66
2021/01/06 04:26:13;;;;;;;51.45;22.30;;;3.00;88.10;;;;;;5015060;28;20041;-66
2021/01/06 04:28:40;;;;;;;41.20;20.40;;;3.00;88.30;;;;;;5026218;28;20477;-66
2021/01/06 04:31:12;;;;;;;49.15;22.50;;;3.00;88.50;;;;;;5030438;28;20033;-66
2021/01/06 04:33:44;;;;;;;55.20;24.75;;;3.00;88.50;;;;;;5032942;28;20096;-66
2021/01/06 04:36:16;;;;;;;52.83;22.23;;;3.00;88.30;;;;;;5029280;28;20017;-66
2021/01/06 04:38:48;;;;;;;57.85;24.15;;;3.00;88.30;;;;;;5027711;28;20056;-66
2021/01/06 04:41:29;;;;;;;;;;;3.00;88.40;;;;;;5031621;28;20036;-66
2021/01/06 04:44:16;;;;;;;60.47;24.67;;;2.90;88.40;;;;;;5020677;28;20019;-66
2021/01/06 04:47:03;;;;;;;67.55;26.77;;;2.90;88.40;;;;;;5032820;28;20045;-66
2021/01/06 04:49:56;;;;;;;62.00;24.42;;;2.90;88.60;;;;;;5031890;28;20064;-66
2021/01/06 04:52:46;;;;;;;57.72;26.42;;;2.90;88.60;;;;;;5024115;28;20091;-66
2021/01/06 04:55:48;;;;;;;49.10;23.38;;;2.80;89.00;;;;;;5026016;28;20500;-66
2021/01/06 04:58:24;;;;;;;53.90;25.17;;;2.80;89.00;;;;;;5031473;28;20068;-66
2021/01/06 05:01:25;;;;;;;60.78;24.63;;;2.70;89.20;;;;;;5029415;28;20500;-66
2021/01/06 05:04:14;;;;;;;63.50;25.23;;;2.80;89.30;;;;;;5029635;28;20044;-66
2021/01/06 05:06:56;;;;;;;56.22;23.02;;;2.70;89.40;;;;;;5022774;28;20034;-66
2021/01/06 05:09:44;;;;;;;56.25;22.25;;;2.70;89.50;;;;;;5024647;28;20018;-65
2021/01/06 05:12:30;;;;;;;58.83;24.38;;;2.70;89.60;;;;;;5024161;28;20036;-66
2021/01/06 05:15:05;;;;;;;59.28;24.13;;;2.70;89.70;;;;;;5020238;28;20033;-65
2021/01/06 05:17:31;;;;;;;51.85;22.90;;;2.70;89.70;;;;;;5030580;28;20065;-65
2021/01/06 05:19:57;;;;;;;51.63;20.33;;;2.70;89.80;;;;;;5030935;28;20064;-66
2021/01/06 05:22:23;;;;;;;55.22;24.60;;;2.70;89.90;;;;;;5021630;28;20071;-65
2021/01/06 05:24:50;;;;;;;57.80;20.55;;;2.70;89.90;;;;;;5033863;28;20160;-65
2021/01/06 05:27:19;;;;;;;46.88;21.88;;;2.70;90.00;;;;;;5035697;28;20056;-66
2021/01/06 05:29:56;;;;;;;47.00;22.63;;;2.70;90.00;;;;;;5034019;28;20025;-65
2021/01/06 05:32:30;;;;;;;50.10;22.70;;;2.70;90.10;;;;;;5033203;28;20365;-65
2021/01/06 05:35:21;;;;;;;46.40;22.45;;;2.70;90.00;;;;;;5025214;28;20390;-65
2021/01/06 05:37:59;;;;;;;43.45;20.13;;;2.80;90.00;;;;;;5028834;28;20492;-65
2021/01/06 05:40:26;;;;;;;46.25;22.55;;;2.80;90.10;;;;;;5025908;28;20489;-65
2021/01/06 05:42:58;;;;;;;54.90;23.02;;;2.80;90.10;;;;;;5023078;28;20370;-65
2021/01/06 05:45:36;;;;;;;49.67;24.45;;;2.80;90.00;;;;;;5033882;28;20026;-65
2021/01/06 05:48:13;;;;;;;51.70;21.73;;;2.80;90.00;;;;;;5025299;28;20056;-65
2021/01/06 05:50:40;;;;;;;44.53;20.20;;;2.80;90.10;;;;;;5028043;28;20037;-66
2021/01/06 05:53:32;;;;;;;49.72;20.95;;;2.80;90.10;;;;;;5035573;28;20033;-66
2021/01/06 05:56:20;;;;;;;49.10;20.98;;;2.80;90.30;;;;;;5034028;28;20037;-66
2021/01/06 05:58:53;;;;;;;46.50;21.52;;;2.80;90.30;;;;;;5032796;28;20408;-66
2021/01/06 06:01:49;;;;;;;44.50;19.95;;;2.80;90.30;;;;;;5031859;28;20033;-66
2021/01/06 06:04:24;;;;;;;47.85;22.90;;;2.80;90.40;;;;;;5023698;28;20490;-66
2021/01/06 06:07:11;;;;;;;50.25;22.48;;;2.80;90.20;;;;;;5033706;28;20068;-66
2021/01/06 06:10:19;;;;;;;47.75;19.60;;;2.80;90.20;;;;;;5029791;28;20032;-66
2021/01/06 06:13:03;;;;;;;45.88;19.92;;;2.80;90.20;;;;;;5026964;28;20025;-66
2021/01/06 06:16:22;;;;;;;45.53;20.38;;;2.80;90.30;;;;;;5030564;28;20029;-66
2021/01/06 06:18:51;;;;;;;48.63;20.65;;;2.80;90.30;;;;;;5013690;28;20026;-66
2021/01/06 06:21:43;;;;;;;64.70;25.80;;;2.80;90.30;;;;;;5031724;28;20043;-66
2021/01/06 06:24:43;;;;;;;55.10;23.58;;;2.80;90.30;;;;;;5032147;28;20036;-66
2021/01/06 06:27:37;;;;;;;64.53;26.50;;;2.80;90.30;;;;;;5018448;28;20045;-64
2021/01/06 06:30:09;;;;;;;56.45;26.55;;;2.70;90.40;;;;;;5034791;28;20053;-63
2021/01/06 06:32:35;;;;;;;81.95;26.02;;;2.70;90.40;;;;;;5033381;28;20044;-63
2021/01/06 06:35:14;;;;;;;61.88;24.58;;;2.70;90.50;;;;;;5033503;28;20029;-63
2021/01/06 06:37:49;;;;;;;49.85;19.98;;;2.60;90.50;;;;;;5027870;28;20470;-64
2021/01/06 06:40:15;;;;;;;70.47;23.67;;;2.60;90.60;;;;;;5028257;28;20401;-64
2021/01/06 06:42:57;;;;;;;49.83;20.70;;;2.60;90.70;;;;;;5016082;28;20033;-64
2021/01/06 06:45:29;;;;;;;67.18;25.70;;;2.60;90.70;;;;;;5032534;28;20025;-64
2021/01/06 06:48:27;;;;;;;51.17;21.00;;;2.60;90.70;;;;;;5034446;28;20025;-63
2021/01/06 06:51:19;;;;;;;56.88;21.33;;;2.50;90.70;;;;;;5022732;28;20021;-64
2021/01/06 06:53:48;;;;;;;62.45;24.45;;;2.50;90.90;;;;;;5023630;28;20032;-63
2021/01/06 06:56:46;;;;;;;49.17;22.35;;;2.50;90.80;;;;;;5025918;28;20091;-63
2021/01/06 06:59:34;;;;;;;59.53;21.42;;;2.50;90.90;;;;;;5023393;28;20545;-64
2021/01/06 07:02:03;;;;;;;63.53;23.67;;;2.40;91.10;;;;;;5031905;28;20024;-51
2021/01/06 07:04:41;;;;;;;67.32;22.30;;;2.40;91.10;;;;;;5024311;28;20029;-51
2021/01/06 07:07:21;;;;;;;58.10;21.70;;;2.40;91.20;;;;;;5020141;28;20099;-52
2021/01/06 07:09:50;;;;;;;48.45;20.13;;;2.40;91.10;;;;;;5027597;28;20481;-55
2021/01/06 07:12:18;;;;;;;53.05;20.17;;;2.40;91.30;;;;;;5032505;28;20366;-52
2021/01/06 07:14:54;;;;;;;61.92;20.92;;;2.40;91.30;;;;;;5031347;28;20429;-58
2021/01/06 07:17:36;;;;;;;52.42;21.80;;;2.40;91.40;;;;;;5034692;28;20026;-54
2021/01/06 07:20:14;;;;;;;64.30;21.13;;;2.50;91.40;;;;;;5023147;28;20056;-54
2021/01/06 07:22:52;;;;;;;61.03;21.23;;;2.50;91.30;;;;;;5012581;28;20518;-58
2021/01/06 07:25:18;;;;;;;64.30;20.83;;;2.40;91.40;;;;;;4999939;28;20077;-57
2021/01/06 07:27:57;;;;;;;60.65;22.40;;;2.50;91.50;;;;;;5000956;28;20046;-58
2021/01/06 07:30:40;;;;;;;56.30;20.38;;;2.50;91.60;;;;;;5005858;28;20569;-58
2021/01/06 07:33:24;;;;;;;42.25;19.02;;;2.50;91.50;;;;;;5011583;28;20116;-58
2021/01/06 07:35:51;;;;;;;54.45;20.42;;;2.60;91.50;;;;;;5002898;28;20026;-57
2021/01/06 07:38:19;;;;;;;62.03;21.33;;;2.60;91.60;;;;;;5010067;28;20105;-56
2021/01/06 07:40:49;;;;;;;60.35;21.58;;;2.70;91.70;;;;;;5010741;28;20037;-56
2021/01/06 07:43:22;;;;;;;50.80;19.27;;;2.70;91.80;;;;;;5012422;28;20025;-56
2021/01/06 07:46:12;;;;;;;60.20;20.35;;;2.80;91.50;;;;;;5001912;28;20038;-56
2021/01/06 07:48:41;;;;;;;50.55;17.17;;;2.80;91.50;;;;;;5007876;28;20034;-57
2021/01/06 07:51:22;;;;;;;38.90;17.55;;;2.80;91.50;;;;;;5006787;28;20431;-58
2021/01/06 07:53:59;;;;;;;48.58;18.42;;;2.90;91.40;;;;;;5001719;28;20125;-55
2021/01/06 07:56:57;;;;;;;50.05;19.35;;;2.90;91.50;;;;;;5005797;28;20390;-58
2021/01/06 07:59:49;;;;;;;51.03;19.23;;;3.00;91.60;;;;;;5000458;28;21374;-58
2021/01/06 08:02:19;;;;;;;;;;;3.00;91.50;;;;;;5007532;28;20030;-57
2021/01/06 08:04:57;;;;;;;59.13;18.67;;;3.10;91.50;;;;;;5000302;28;19910;-55
2021/01/06 08:07:24;;;;;;;53.42;19.30;;;3.10;91.30;;;;;;5012073;28;20113;-57
2021/01/06 08:09:51;;;;;;;67.32;20.25;;;3.10;91.10;;;;;;5008489;28;20129;-55
2021/01/06 08:12:22;;;;;;;58.55;21.25;;;3.10;91.20;;;;;;5009803;28;20532;-57
2021/01/06 08:14:49;;;;;;;55.67;18.17;;;3.10;91.10;;;;;;5006457;28;20129;-54
2021/01/06 08:17:25;;;;;;;44.47;16.40;;;3.20;91.20;;;;;;4998076;28;20041;-57
2021/01/06 08:20:07;;;;;;;53.50;18.95;;;3.20;91.30;;;;;;5008879;28;20030;-57
2021/01/06 08:22:52;;;;;;;66.88;21.35;;;3.20;91.30;;;;;;5001937;28;20080;-53
2021/01/06 08:25:21;;;;;;;40.75;15.65;;;3.30;91.20;;;;;;5002695;28;20033;-55
2021/01/06 08:27:47;;;;;;;45.40;17.75;;;3.30;91.30;;;;;;5006744;28;20052;-57
2021/01/06 08:30:19;;;;;;;49.25;17.30;;;3.40;91.30;;;;;;5003580;28;20465;-54
2021/01/06 08:32:46;;;;;;;47.85;17.48;;;3.40;91.10;;;;;;5000660;28;20087;-56
2021/01/06 08:35:20;;;;;;;54.35;18.85;;;3.40;90.90;;;;;;5008453;28;20026;-56
2021/01/06 08:37:51;;;;;;;47.22;18.38;;;3.50;91.00;;;;;;5009640;28;20406;-55
2021/01/06 08:40:36;;;;;;;51.80;18.48;;;3.50;91.00;;;;;;5003438;28;20058;-55
2021/01/06 08:43:11;;;;;;;47.88;18.33;;;3.50;91.00;;;;;;5007570;28;20037;-56
2021/01/06 08:45:41;;;;;;;55.85;18.25;;;3.50;91.00;;;;;;5016140;28;20052;-55
2021/01/06 08:48:14;;;;;;;57.88;18.73;;;3.60;91.00;;;;;;5011398;28;20038;-57
2021/01/06 08:50:43;;;;;;;48.22;16.13;;;3.60;91.00;;;;;;5009259;28;20132;-56
2021/01/06 08:53:09;;;;;;;36.63;15.20;;;3.60;90.90;;;;;;5005900;28;20034;-55
2021/01/06 08:55:54;;;;;;;41.30;16.65;;;3.70;91.10;;;;;;5008147;28;20088;-55
2021/01/06 08:58:20;;;;;;;54.17;17.42;;;3.70;91.00;;;;;;5012841;28;20366;-57
2021/01/06 09:00:59;;;;;;;49.40;18.23;;;3.80;91.00;;;;;;5007522;28;20290;-56
2021/01/06 09:03:28;;;;;;;39.10;15.10;;;3.90;91.00;;;;;;5005522;28;20049;-55
2021/01/06 09:05:54;;;;;;;43.22;15.85;;;3.90;90.90;;;;;;5004216;28;20223;-56
2021/01/06 09:08:22;;;;;;;40.95;16.55;;;4.00;90.90;;;;;;5009810;28;20175;-57
2021/01/06 09:11:17;;;;;;;44.67;17.20;;;4.00;90.90;;;;;;5010268;28;20438;-57
2021/01/06 09:13:57;;;;;;;41.88;16.20;;;4.00;90.70;;;;;;5011114;28;20659;-56
2021/01/06 09:16:35;;;;;;;38.25;16.42;;;4.00;90.60;;;;;;5012581;28;20018;-56
2021/01/06 09:19:19;;;;;;;37.65;16.38;;;4.00;90.60;;;;;;5010236;28;20030;-59
2021/01/06 09:21:45;;;;;;;31.02;14.60;;;4.00;90.60;;;;;;5005134;28;20486;-56
2021/01/06 09:24:33;;;;;;;40.65;17.35;;;4.00;90.50;;;;;;5010046;28;20545;-57
2021/01/06 09:27:21;;;;;;;33.85;13.75;;;4.10;90.60;;;;;;5009800;28;20526;-57
2021/01/06 09:29:47;;;;;;;33.75;14.50;;;4.10;90.70;;;;;;5009388;28;20149;-57
2021/01/06 09:32:22;;;;;;;42.28;16.20;;;4.20;90.70;;;;;;5013529;28;20078;-54
2021/01/06 09:34:54;;;;;;;43.00;16.90;;;4.20;90.80;;;;;;5012260;28;20026;-55
2021/01/06 09:37:27;;;;;;;29.20;13.60;;;4.30;90.70;;;;;;5017277;28;20017;-57
2021/01/06 09:39:57;;;;;;;42.95;16.35;;;4.30;90.60;;;;;;5007660;28;20030;-57
2021/01/06 09:42:23;;;;;;;41.10;17.80;;;4.30;90.70;;;;;;5009458;28;20050;-57
2021/01/06 09:44:49;;;;;;;37.40;15.00;;;4.40;90.70;;;;;;5012858;28;20478;-54
2021/01/06 09:47:36;;;;;;;67.85;19.08;;;4.40;90.60;;;;;;5012604;28;20022;-57
2021/01/06 09:50:21;;;;;;;39.17;14.88;;;4.50;90.60;;;;;;5008640;28;20022;-55
2021/01/06 09:52:49;;;;;;;32.65;14.35;;;4.60;90.50;;;;;;5013022;28;20025;-56
2021/01/06 09:55:22;;;;;;;35.70;15.52;;;4.60;90.30;;;;;;5007418;28;20034;-56
2021/01/06 09:58:19;;;;;;;35.60;15.48;;;4.60;90.20;;;;;;5007428;28;20106;-56
2021/01/06 10:00:54;;;;;;;39.45;14.63;;;4.50;90.10;;;;;;5010847;28;20389;-56
2021/01/06 10:03:20;;;;;;;37.30;15.43;;;4.50;90.20;;;;;;5008323;28;20077;-56
2021/01/06 10:05:59;;;;;;;32.28;13.95;;;4.60;90.40;;;;;;5010522;28;20045;-56
2021/01/06 10:08:46;;;;;;;31.40;14.57;;;4.60;90.40;;;;;;5008533;28;20021;-56
2021/01/06 10:11:38;;;;;;;34.53;14.18;;;4.60;90.30;;;;;;5009263;28;20061;-57
2021/01/06 10:14:14;;;;;;;39.75;15.10;;;4.70;90.30;;;;;;5010571;28;20044;-55
2021/01/06 10:16:55;;;;;;;32.38;13.07;;;4.70;90.40;;;;;;5012642;28;20022;-56
2021/01/06 10:19:39;;;;;;;39.23;16.43;;;4.80;90.40;;;;;;5014675;28;20038;-57
2021/01/06 10:22:25;;;;;;;47.10;16.42;;;4.80;90.40;;;;;;5005553;28;20030;-56
2021/01/06 10:25:18;;;;;;;31.15;12.75;;;4.90;90.40;;;;;;5011042;28;20112;-56
2021/01/06 10:28:06;;;;;;;37.15;14.00;;;4.90;90.30;;;;;;5008892;28;20050;-54
2021/01/06 10:30:33;;;;;;;30.10;13.00;;;5.00;90.30;;;;;;5005915;28;20026;-56
2021/01/06 10:33:20;;;;;;;43.40;16.00;;;5.00;90.40;;;;;;5009495;28;20529;-55
2021/01/06 10:35:58;;;;;;;30.30;12.55;;;5.00;90.20;;;;;;5016905;28;20026;-57
2021/01/06 10:38:28;;;;;;;34.30;15.38;;;5.10;90.30;;;;;;5013534;28;20061;-56
2021/01/06 10:41:15;;;;;;;27.42;11.48;;;5.20;90.10;;;;;;5017647;28;20029;-56
2021/01/06 10:43:48;;;;;;;31.40;12.38;;;5.20;90.10;;;;;;5006987;28;20074;-56
2021/01/06 10:46:53;;;;;;;36.58;14.60;;;5.20;90.10;;;;;;5008433;28;20054;-55
2021/01/06 10:49:18;;;;;;;32.63;14.43;;;5.20;89.50;;;;;;5026940;28;20083;-56
2021/01/06 10:51:59;;;;;;;35.15;14.77;;;5.20;90.00;;;;;;5027187;28;20033;-57
2021/01/06 10:54:50;;;;;;;31.02;14.85;;;5.30;89.90;;;;;;5025663;28;20085;-58
2021/01/06 10:57:25;;;;;;;34.38;14.30;;;5.40;90.00;;;;;;5033875;28;20036;-54
2021/01/06 11:00:18;;;;;;;34.83;13.88;;;5.40;90.10;;;;;;5008959;28;20391;-58
2021/01/06 11:03:14;;;;;;;30.45;12.70;;;5.50;90.10;;;;;;5003844;28;20030;-56
2021/01/06 11:05:52;;;;;;;38.22;13.77;;;5.50;90.20;;;;;;5006717;28;20460;-58
2021/01/06 11:08:45;;;;;;;31.27;12.23;;;5.60;90.20;;;;;;5008508;28;20060;-54
2021/01/06 11:11:42;;;;;;;28.85;11.90;;;5.70;90.00;;;;;;5010664;28;20022;-57
2021/01/06 11:14:25;;;;;;;45.70;15.65;;;5.70;89.70;;;;;;5004500;28;20034;-57
2021/01/06 11:16:56;;;;;;;39.80;15.02;;;5.70;88.90;;;;;;5005060;28;20019;-57
2021/01/06 11:19:53;;;;;;;42.27;15.53;;;5.70;88.20;;;;;;5007031;28;20481;-55
2021/01/06 11:22:38;;;;;;;41.17;13.77;;;5.60;87.90;;;;;;5008340;28;20041;-58
2021/01/06 11:25:27;;;;;;;39.47;12.75;;;5.50;88.30;;;;;;5003053;28;20026;-55
2021/01/06 11:27:56;;;;;;;39.90;15.07;;;5.50;88.00;;;;;;5004344;28;20050;-58
2021/01/06 11:30:29;;;;;;;41.47;16.23;;;5.50;88.20;;;;;;5006062;28;20026;-55
2021/01/06 11:33:25;;;;;;;46.75;16.40;;;5.50;88.60;;;;;;5005542;28;20113;-57
2021/01/06 11:36:34;;;;;;;51.47;16.77;;;5.50;88.80;;;;;;5021312;28;20026;-55
2021/01/06 11:39:06;;;;;;;56.35;18.30;;;5.50;88.30;;;;;;5009086;28;20035;-58
2021/01/06 11:41:32;;;;;;;39.50;13.35;;;5.50;88.30;;;;;;5004223;28;20026;-58
2021/01/06 11:44:05;;;;;;;45.03;15.10;;;5.50;88.30;;;;;;5003843;28;20037;-56
2021/01/06 11:46:38;;;;;;;50.08;16.75;;;5.50;88.10;;;;;;5008727;28;20045;-58
2021/01/06 11:49:28;;;;;;;43.42;17.10;;;5.50;88.40;;;;;;5002995;28;20058;-55
2021/01/06 11:52:27;;;;;;;52.53;17.95;;;5.50;88.60;;;;;;5008410;28;20029;-58
2021/01/06 11:55:15;;;;;;;44.55;17.10;;;5.60;89.00;;;;;;5009947;28;20033;-56
2021/01/06 11:57:50;;;;;;;48.45;16.42;;;5.60;88.80;;;;;;5007431;28;20598;-56
2021/01/06 12:00:41;;;;;;;44.88;16.63;;;5.60;88.30;;;;;;5007755;28;20030;-55
2021/01/06 12:03:07;;;;;;;52.75;17.95;;;5.60;87.90;;;;;;5002732;28;20065;-57
2021/01/06 12:05:54;;;;;;;48.47;17.92;;;5.60;88.10;;;;;;5009018;28;20760;-54
2021/01/06 12:08:51;;;;;;;47.88;16.65;;;5.70;88.40;;;;;;5003428;28;20036;-58
2021/01/06 12:11:35;;;;;;;38.17;16.20;;;5.70;88.60;;;;;;5004858;28;20076;-57
2021/01/06 12:14:31;;;;;;;40.05;14.27;;;5.70;87.90;;;;;;5007198;28;20108;-57
2021/01/06 12:17:15;;;;;;;42.60;13.85;;;5.70;87.50;;;;;;5004660;28;20093;-58
2021/01/06 12:20:00;;;;;;;56.75;16.70;;;5.60;87.40;;;;;;5000479;28;20025;-56
2021/01/06 12:22:26;;;;;;;45.80;16.15;;;5.60;87.40;;;;;;5003290;28;20062;-58
2021/01/06 12:25:26;;;;;;;48.28;17.88;;;5.60;87.60;;;;;;5006820;28;20073;-57
2021/01/06 12:28:18;;;;;;;46.35;15.85;;;5.60;87.60;;;;;;5012991;28;20489;-58
2021/01/06 12:31:02;;;;;;;39.22;14.20;;;5.60;87.70;;;;;;5008734;28;20030;-58
2021/01/06 12:33:43;;;;;;;35.28;12.82;;;5.60;88.20;;;;;;5004103;28;20034;-57
2021/01/06 12:36:22;;;;;;;61.67;17.45;;;5.60;88.00;;;;;;5007487;28;20229;-58
2021/01/06 12:38:50;;;;;;;44.22;13.45;;;5.60;87.60;;;;;;5006488;28;20658;-58
2021/01/06 12:41:25;;;;;;;39.67;15.85;;;5.60;87.60;;;;;;5004375;28;20029;-58
2021/01/06 12:43:57;;;;;;;42.80;16.98;;;5.60;87.50;;;;;;5002435;28;20084;-58
2021/01/06 12:46:27;;;;;;;51.67;18.48;;;5.60;87.90;;;;;;5004457;28;20110;-56
2021/01/06 12:48:57;;;;;;;50.58;19.25;;;5.60;88.20;;;;;;5008503;28;20030;-55
2021/01/06 12:51:27;;;;;;;50.28;18.77;;;5.70;88.50;;;;;;5004610;28;20026;-57
2021/01/06 12:54:01;;;;;;;49.25;21.08;;;5.70;88.70;;;;;;5011050;28;20030;-57
2021/01/06 12:56:43;;;;;;;41.63;16.75;;;5.80;88.80;;;;;;5006889;28;20022;-58
2021/01/06 12:59:17;;;;;;;44.63;19.73;;;5.90;88.70;;;;;;5008157;28;20497;-57
2021/01/06 13:01:45;;;;;;;47.20;20.75;;;6.00;88.80;;;;;;5004638;28;20033;-58
2021/01/06 13:04:13;;;;;;;55.63;22.77;;;6.10;88.80;;;;;;5006156;28;20556;-58
2021/01/06 13:07:15;;;;;;;50.60;22.00;;;6.10;88.90;;;;;;5008562;28;20041;-58
2021/01/06 13:09:59;;;;;;;57.28;22.63;;;6.20;88.90;;;;;;5004972;28;20497;-57
2021/01/06 13:12:49;;;;;;;63.03;24.55;;;6.30;89.00;;;;;;5007826;28;20034;-57
2021/01/06 13:15:42;;;;;;;45.67;21.65;;;6.30;89.00;;;;;;5000145;28;20057;-59
2021/01/06 13:18:15;;;;;;;57.97;22.33;;;6.40;88.60;;;;;;5009142;28;20038;-55
2021/01/06 13:20:47;;;;;;;58.97;24.55;;;6.40;88.40;;;;;;5003176;28;20034;-55
2021/01/06 13:23:28;;;;;;;;;;;6.40;88.00;;;;;;5009302;28;20037;-55